Time;durP1;ratioP1;P1;durP2;ratioP2;P2;SDS_P1;SDS_P2;PMS_P1;PMS_P2;Temp;Humidity;BMP_temperature;BMP_pressure;BME280_temperature;BME280_humidity;BME280_pressure;Samples;Min_cycle;Max_cycle;Signal;HPM_P1;HPM_P2
2022/09/11 00:00:30;;;;;;;;;11.00;11.00;;;;;16.87;74.42;101636.75;5021216;28;45329;-81
2022/09/11 00:02:56;;;;;;;;;11.00;10.00;;;;;16.85;74.53;101638.56;5019800;28;45268;-81
2022/09/11 00:05:21;;;;;;;;;10.75;10.75;;;;;16.80;74.74;101632.44;5021184;28;45548;-81
2022/09/11 00:07:46;;;;;;;;;15.25;14.00;;;;;16.81;74.91;101636.81;5019766;28;45267;-81
2022/09/11 00:10:12;;;;;;;;;9.50;9.00;;;;;16.73;75.21;101615.66;5018746;28;47010;-81
2022/09/11 00:12:37;;;;;;;;;14.75;12.50;;;;;16.72;75.04;101624.53;5020147;28;45462;-81
2022/09/11 00:15:03;;;;;;;;;9.50;9.50;;;;;16.70;74.94;101623.66;5018894;28;45261;-81
2022/09/11 00:17:29;;;;;;;;;14.00;11.25;;;;;16.67;75.07;101617.53;5018511;28;45994;-82
2022/09/11 00:19:54;;;;;;;;;14.00;14.00;;;;;16.68;75.34;101620.16;5018690;28;48000;-81
2022/09/11 00:22:20;;;;;;;;;11.50;10.75;;;;;16.65;75.37;101616.66;5019871;28;45438;-81
2022/09/11 00:24:46;;;;;;;;;12.25;11.75;;;;;16.67;75.21;101623.72;5020196;28;45497;-81
2022/09/11 00:27:11;;;;;;;;;14.50;14.50;;;;;16.67;75.17;101623.72;5018706;28;45474;-80
2022/09/11 00:29:37;;;;;;;;;11.75;9.75;;;;;16.63;75.14;101608.72;5018547;28;48076;-82
2022/09/11 00:32:03;;;;;;;;;15.50;15.00;;;;;16.69;75.24;101618.38;5018471;28;45387;-81
2022/09/11 00:34:28;;;;;;;;;10.50;9.50;;;;;16.68;75.14;101616.59;5021224;28;45403;-81
2022/09/11 00:36:53;;;;;;;;;14.75;13.25;;;;;16.63;75.25;101611.38;5019452;28;45484;-81
2022/09/11 00:39:20;;;;;;;;;13.00;11.25;;;;;16.67;75.33;101620.19;5020642;28;45268;-81
2022/09/11 00:41:45;;;;;;;;;12.25;12.25;;;;;16.64;75.14;101617.56;5020188;28;45320;-80
2022/09/11 00:44:11;;;;;;;;;14.50;13.50;;;;;16.69;75.41;101618.38;5019787;28;45205;-81
2022/09/11 00:46:43;;;;;;;;;13.50;12.75;;;;;16.68;75.20;101612.19;5018419;28;45450;-81
2022/09/11 00:49:20;;;;;;;;;16.00;15.75;;;;;16.65;75.34;101606.94;5019989;28;46693;-81
2022/09/11 00:51:52;;;;;;;;;15.25;13.25;;;;;16.69;75.18;101611.28;5018766;28;45317;-81
2022/09/11 00:54:20;;;;;;;;;13.00;12.00;;;;;16.68;75.21;101605.97;5018212;28;45370;-81
2022/09/11 00:56:47;;;;;;;;;15.75;15.75;;;;;16.67;75.25;101609.53;5018079;28;45470;-81
2022/09/11 00:59:13;;;;;;;;;14.00;14.00;;;;;16.68;75.14;101613.94;5017905;28;47326;-81
2022/09/11 01:01:38;;;;;;;;;12.25;12.00;;;;;16.64;75.25;101607.81;5019717;28;45263;-81
2022/09/11 01:04:06;;;;;;;;;13.25;13.25;;;;;16.62;75.24;101606.94;5022971;28;45233;-81
2022/09/11 01:06:32;;;;;;;;;11.00;11.00;;;;;16.55;75.30;101594.66;5023180;28;45410;-81
2022/09/11 01:08:58;;;;;;;;;10.75;9.50;;;;;16.63;75.05;101606.06;5021370;28;46265;-81
2022/09/11 01:11:32;;;;;;;;;13.25;11.75;;;;;16.62;75.41;101608.72;5023170;28;45412;-81
2022/09/11 01:14:07;;;;;;;;;18.75;17.50;;;;;16.60;75.59;101614.09;5021635;28;45414;-81
2022/09/11 01:16:39;;;;;;;;;14.25;14.25;;;;;16.58;75.46;101602.59;5021689;28;45367;-81
2022/09/11 01:19:30;;;;;;;;;16.50;14.25;;;;;16.56;75.41;101606.19;5022735;28;46112;-81
2022/09/11 01:22:26;;;;;;;;;13.25;12.25;;;;;16.53;75.44;101604.44;5021274;28;45295;-81
2022/09/11 01:24:56;;;;;;;;;15.50;15.50;;;;;16.48;75.61;101601.84;5022864;28;45396;-80
2022/09/11 01:27:41;;;;;;;;;13.50;11.75;;;;;16.49;75.81;101600.06;5020949;28;45436;-81
2022/09/11 01:30:29;;;;;;;;;13.75;13.25;;;;;16.44;75.88;101586.84;5020520;28;45501;-81
2022/09/11 01:33:21;;;;;;;;;15.50;15.50;;;;;16.42;75.69;101578.00;5000530;28;45846;-81
2022/09/11 01:35:54;;;;;;;;;17.75;17.50;;;;;16.47;75.61;101594.78;5010029;28;45444;-81
2022/09/11 01:38:38;;;;;;;;;14.75;14.50;;;;;16.45;75.60;101593.91;5021095;28;45491;-81
2022/09/11 01:41:32;;;;;;;;;17.00;17.00;;;;;16.47;75.66;101596.56;5022375;28;45442;-81
2022/09/11 01:44:12;;;;;;;;;16.75;15.00;;;;;16.42;75.83;101596.63;5021851;28;45241;-81
2022/09/11 01:46:48;;;;;;;;;15.75;15.75;;;;;16.43;75.91;101589.53;5022316;28;45403;-81
2022/09/11 01:49:24;;;;;;;;;18.00;18.00;;;;;16.43;75.73;101578.88;5021077;28;45473;-81
2022/09/11 01:51:56;;;;;;;;;13.00;11.75;;;;;16.46;75.82;101593.00;5020895;28;48106;-81
2022/09/11 01:54:28;;;;;;;;;16.25;14.75;;;;;16.43;75.53;101590.38;5021969;28;45402;-81
2022/09/11 01:57:01;;;;;;;;;13.00;12.25;;;;;16.45;75.79;101603.66;5020678;28;45213;-81
2022/09/11 01:59:34;;;;;;;;;12.25;11.00;;;;;16.37;75.91;101589.63;5021966;28;45185;-81
2022/09/11 02:02:12;;;;;;;;;15.25;14.00;;;;;16.41;75.53;101594.88;5022271;28;46506;-81
2022/09/11 02:04:54;;;;;;;;;14.25;12.25;;;;;16.33;75.29;101580.78;5022288;28;45220;-81
2022/09/11 02:07:30;;;;;;;;;13.25;13.25;;;;;16.38;75.35;101580.72;5021163;28;45188;-81
2022/09/11 02:10:02;;;;;;;;;16.00;14.00;;;;;16.33;75.30;101583.44;5021652;28;45251;-81
2022/09/11 02:12:39;;;;;;;;;15.50;14.00;;;;;16.32;74.80;101582.56;5023184;28;45393;-81
2022/09/11 02:15:04;;;;;;;;;16.50;15.50;;;;;16.29;75.24;101572.00;5019499;28;45434;-81
2022/09/11 02:17:52;;;;;;;;;13.00;13.00;;;;;16.30;74.96;101587.06;5021869;28;45218;-81
2022/09/11 02:20:19;;;;;;;;;15.50;15.50;;;;;16.28;75.39;101585.31;5022043;28;45222;-81
2022/09/11 02:22:45;;;;;;;;;15.50;14.25;;;;;16.23;75.58;101571.22;5021701;28;45418;-81
2022/09/11 02:25:12;;;;;;;;;15.50;15.00;;;;;16.27;75.89;101588.84;5021819;28;45474;-81
2022/09/11 02:27:38;;;;;;;;;15.00;15.00;;;;;16.26;75.78;101580.00;5020762;28;45462;-81
2022/09/11 02:30:05;;;;;;;;;17.50;16.75;;;;;16.23;75.63;101581.84;5020205;28;45393;-80
2022/09/11 02:32:35;;;;;;;;;17.00;17.00;;;;;16.25;75.75;101588.91;5021558;28;45231;-81
2022/09/11 02:35:01;;;;;;;;;18.50;18.00;;;;;16.20;75.60;101584.50;5021673;28;45414;-81
2022/09/11 02:37:26;;;;;;;;;16.50;15.75;;;;;16.23;75.40;101587.16;5021782;28;45362;-81
2022/09/11 02:40:01;;;;;;;;;14.50;12.75;;;;;16.21;75.44;101591.59;5021641;28;45283;-81
2022/09/11 02:42:27;;;;;;;;;19.00;17.00;;;;;16.20;75.41;101590.72;5021487;28;45426;-81
2022/09/11 02:45:01;;;;;;;;;18.25;15.25;;;;;16.20;75.39;101587.16;5021352;28;45347;-81
2022/09/11 02:48:09;;;;;;;;;13.50;13.25;;;;;16.18;75.46;101591.66;5021737;28;45287;-81
2022/09/11 02:51:16;;;;;;;;;15.00;14.00;;;;;16.14;75.44;101585.47;5021660;28;45296;-81
2022/09/11 02:54:04;;;;;;;;;13.75;13.75;;;;;16.10;75.46;101587.31;5001573;28;46453;-81
2022/09/11 02:57:02;;;;;;;;;15.25;14.25;;;;;16.14;75.42;101589.91;5020937;28;45461;-81
2022/09/11 02:59:45;;;;;;;;;7.00;7.00;;;;;16.12;75.22;101589.94;5012707;28;45462;-81
2022/09/11 03:02:13;;;;;;;;;13.75;13.75;;;;;16.10;75.26;101595.28;5019648;28;45351;-81
2022/09/11 03:04:38;;;;;;;;;17.75;14.25;;;;;16.08;75.13;101596.19;5019704;28;46961;-82
2022/09/11 03:07:04;;;;;;;;;16.50;14.50;;;;;16.00;74.64;101584.78;5021275;28;45378;-81
2022/09/11 03:09:30;;;;;;;;;17.50;15.25;;;;;15.99;75.03;101581.25;5021236;28;45246;-81
2022/09/11 03:11:55;;;;;;;;;17.25;15.00;;;;;15.95;75.21;101573.34;5021106;28;45418;-81
2022/09/11 03:14:21;;;;;;;;;13.50;13.00;;;;;15.95;74.82;101576.88;5020800;28;45234;-80
2022/09/11 03:16:47;;;;;;;;;18.00;14.75;;;;;16.00;75.28;101584.78;5019692;28;45200;-81
2022/09/11 03:19:12;;;;;;;;;12.00;12.00;;;;;15.98;75.19;101583.91;5019690;28;45185;-81
2022/09/11 03:21:38;;;;;;;;;15.75;14.25;;;;;15.96;75.23;101583.06;5019698;28;45237;-81
2022/09/11 03:24:04;;;;;;;;;21.50;19.25;;;;;15.98;75.17;101586.56;5019452;28;46901;-81
2022/09/11 03:26:32;;;;;;;;;20.00;19.00;;;;;15.89;75.07;101571.63;5020360;28;45474;-81
2022/09/11 03:28:58;;;;;;;;;18.25;17.25;;;;;15.94;75.04;101583.09;5019260;28;45416;-82
2022/09/11 03:31:23;;;;;;;;;15.50;15.25;;;;;15.88;75.16;101575.22;5019275;28;45867;-81
2022/09/11 03:33:49;;;;;;;;;20.50;18.75;;;;;15.86;75.28;101583.19;5019521;28;47988;-81
2022/09/11 03:36:14;;;;;;;;;21.25;20.00;;;;;15.82;75.37;101577.91;5019434;28;45860;-81
2022/09/11 03:38:40;;;;;;;;;25.25;22.25;;;;;15.85;75.67;101586.75;5019411;28;45421;-81
2022/09/11 03:41:08;;;;;;;;;27.00;23.25;;;;;15.79;75.70;101575.31;5019459;28;45194;-81
2022/09/11 03:43:34;;;;;;;;;28.50;25.50;;;;;15.76;75.79;101576.22;5019286;28;48472;-80
2022/09/11 03:45:59;;;;;;;;;21.00;17.25;;;;;15.79;75.65;101584.13;5018895;28;45279;-81
2022/09/11 03:48:25;;;;;;;;;24.75;22.75;;;;;15.75;75.80;101579.78;5019251;28;45450;-80
2022/09/11 03:50:50;;;;;;;;;24.00;22.75;;;;;15.79;75.93;101588.56;5020698;28;45425;-81
2022/09/11 03:53:17;;;;;;;;;21.75;20.75;;;;;15.76;75.69;101576.22;5019108;28;48419;-81
2022/09/11 03:55:44;;;;;;;;;21.25;19.50;;;;;15.72;75.49;101574.50;5020406;28;45352;-81
2022/09/11 03:58:10;;;;;;;;;20.25;19.00;;;;;15.73;75.45;101586.00;5020488;28;45232;-81
2022/09/11 04:00:40;;;;;;;;;25.00;21.75;;;;;15.73;75.80;101589.53;5018834;28;45725;-81
2022/09/11 04:03:05;;;;;;;;;25.25;22.50;;;;;15.72;75.64;101578.94;5020282;28;45566;-81
2022/09/11 04:05:31;;;;;;;;;25.75;22.75;;;;;15.70;75.85;101584.25;5020078;28;45392;-81
2022/09/11 04:07:56;;;;;;;;;23.00;21.00;;;;;15.68;75.58;101569.22;5018629;28;45376;-81
2022/09/11 04:10:21;;;;;;;;;22.00;20.00;;;;;15.69;75.62;101566.59;5019085;28;45809;-81
2022/09/11 04:12:47;;;;;;;;;26.75;23.75;;;;;15.76;75.79;101576.22;5018503;28;48143;-81
2022/09/11 04:15:13;;;;;;;;;27.50;25.00;;;;;15.72;75.51;101577.16;5019866;28;45479;-81
2022/09/11 04:17:38;;;;;;;;;26.00;21.00;;;;;15.68;75.60;101574.53;5020098;28;45391;-81
2022/09/11 04:20:05;;;;;;;;;23.75;21.75;;;;;15.73;75.62;101580.69;5018944;28;45506;-81
2022/09/11 04:22:31;;;;;;;;;19.00;17.00;;;;;15.73;75.82;101581.56;5019989;28;45632;-81
2022/09/11 04:24:56;;;;;;;;;21.75;16.25;;;;;15.77;75.56;101590.38;5019903;28;45259;-81
2022/09/11 04:27:23;;;;;;;;;20.50;19.50;;;;;15.73;75.46;101583.34;5020211;28;45145;-81
2022/09/11 04:29:49;;;;;;;;;19.75;19.00;;;;;15.74;75.44;101585.09;5019756;28;45399;-81
2022/09/11 04:32:14;;;;;;;;;18.25;18.25;;;;;15.76;75.18;101589.50;5019641;28;45618;-81
2022/09/11 04:34:40;;;;;;;;;22.50;22.00;;;;;15.70;75.39;101572.78;5019835;28;45340;-81
2022/09/11 04:37:05;;;;;;;;;22.00;18.75;;;;;15.74;75.16;101582.44;5018866;28;45470;-81
2022/09/11 04:39:31;;;;;;;;;17.50;17.50;;;;;15.74;75.27;101585.09;5018666;28;45498;-81
2022/09/11 04:41:56;;;;;;;;;16.75;16.25;;;;;15.74;75.06;101588.63;5019893;28;45926;-81
2022/09/11 04:44:25;;;;;;;;;18.25;15.50;;;;;15.72;75.16;101589.56;5018393;28;45962;-81
2022/09/11 04:46:50;;;;;;;;;14.75;13.50;;;;;15.75;75.31;101595.72;5018435;28;45235;-81
2022/09/11 04:49:16;;;;;;;;;13.50;13.00;;;;;15.69;75.16;101589.56;5020396;28;45368;-81
2022/09/11 04:51:42;;;;;;;;;16.75;15.00;;;;;15.72;75.26;101597.53;5019501;28;47482;-82
2022/09/11 04:54:12;;;;;;;;;14.50;12.75;;;;;15.64;75.35;101590.50;5020124;28;45217;-81
2022/09/11 04:56:37;;;;;;;;;14.25;13.00;;;;;15.72;75.54;101605.50;5018134;28;45391;-81
2022/09/11 04:59:16;;;;;;;;;15.25;14.00;;;;;15.64;75.22;101592.28;5019551;28;45360;-81
2022/09/11 05:01:42;;;;;;;;;15.50;15.50;;;;;15.64;75.43;101603.75;5019565;28;46021;-81
2022/09/11 05:04:12;;;;;;;;;17.50;13.75;;;;;15.66;75.36;101614.34;5019489;28;45257;-81
2022/09/11 05:06:38;;;;;;;;;14.50;13.75;;;;;15.59;75.62;101617.97;5018225;28;45384;-81
2022/09/11 05:09:07;;;;;;;;;19.50;16.00;;;;;15.61;75.67;101616.16;5017968;28;45528;-81
2022/09/11 05:11:33;;;;;;;;;17.50;17.50;;;;;15.60;75.95;101625.91;5019552;28;45377;-82
2022/09/11 05:13:58;;;;;;;;;14.75;13.25;;;;;15.58;75.93;101613.53;5017695;28;45297;-81
2022/09/11 05:16:28;;;;;;;;;14.75;14.75;;;;;15.58;76.03;101622.41;5017652;28;45362;-81
2022/09/11 05:18:55;;;;;;;;;16.00;13.25;;;;;15.64;75.93;101634.75;5018041;28;45642;-81
2022/09/11 05:21:23;;;;;;;;;21.25;17.50;;;;;15.65;76.24;101626.75;5018154;28;47658;-81
2022/09/11 05:23:51;;;;;;;;;16.50;12.50;;;;;15.65;76.22;101620.56;5017805;28;45260;-81
2022/09/11 05:26:19;;;;;;;;;16.50;16.00;;;;;15.55;76.39;101618.88;5018051;28;45371;-81
2022/09/11 05:28:44;;;;;;;;;15.50;15.50;;;;;15.56;76.28;101620.66;5018066;28;45598;-81
2022/09/11 05:31:16;;;;;;;;;14.00;13.25;;;;;15.62;76.52;101628.56;5018893;28;46186;-81
2022/09/11 05:33:42;;;;;;;;;13.50;12.25;;;;;15.59;76.43;101628.59;5019216;28;45301;-81
2022/09/11 05:36:09;;;;;;;;;19.25;15.50;;;;;15.57;76.37;101633.91;5017873;28;45433;-81
2022/09/11 05:38:37;;;;;;;;;11.75;11.75;;;;;15.53;76.44;101624.22;5018988;28;45638;-81
2022/09/11 05:41:07;;;;;;;;;17.00;13.50;;;;;15.55;76.15;101625.06;5019312;28;45297;-81
2022/09/11 05:43:34;;;;;;;;;11.25;11.25;;;;;15.60;76.49;101639.19;5017624;28;45256;-81
2022/09/11 05:46:00;;;;;;;;;15.75;14.25;;;;;15.58;76.24;101638.34;5017544;28;45430;-81
2022/09/11 05:48:30;;;;;;;;;17.25;16.75;;;;;15.52;76.24;101638.38;5019567;28;45308;-81
2022/09/11 05:51:01;;;;;;;;;20.25;16.25;;;;;15.51;76.47;101649.91;5020897;28;45462;-81
2022/09/11 05:53:32;;;;;;;;;14.75;12.25;;;;;15.40;76.37;101633.22;5022248;28;45198;-81
2022/09/11 05:56:05;;;;;;;;;16.50;15.50;;;;;15.45;76.16;101649.97;5020763;28;45545;-81
2022/09/11 05:58:31;;;;;;;;;12.00;11.50;;;;;15.39;76.11;101644.69;5022047;28;45296;-81
2022/09/11 06:01:08;;;;;;;;;13.25;12.00;;;;;15.47;76.45;101657.91;5020441;28;46617;-81
2022/09/11 06:03:35;;;;;;;;;13.25;12.25;;;;;15.41;76.43;101649.09;5022216;28;45453;-81
2022/09/11 06:06:11;;;;;;;;;14.75;14.00;;;;;15.40;76.47;101651.78;5020613;28;45422;-81
2022/09/11 06:08:39;;;;;;;;;11.50;10.00;;;;;15.39;76.54;101648.22;5009801;28;45236;-81
2022/09/11 06:11:06;;;;;;;;;11.75;10.00;;;;;15.45;76.54;101660.59;5000766;28;46170;-81
2022/09/11 06:13:34;;;;;;;;;12.00;11.33;;;;;15.44;76.48;101654.38;5000739;28;45525;-81
2022/09/11 06:16:01;;;;;;;;;11.00;10.00;;;;;15.48;76.97;101665.84;5001928;28;45432;-81
2022/09/11 06:18:27;;;;;;;;;12.75;10.25;;;;;15.50;76.48;101668.47;5000781;28;45651;-81
2022/09/11 06:20:57;;;;;;;;;13.00;12.75;;;;;15.46;76.84;101658.81;5001837;28;45302;-81
2022/09/11 06:23:23;;;;;;;;;9.00;9.00;;;;;15.47;76.68;101657.91;5000689;28;45542;-81
2022/09/11 06:25:48;;;;;;;;;9.00;7.75;;;;;15.44;76.34;101653.50;5001990;28;45438;-81
2022/09/11 06:28:14;;;;;;;;;11.50;11.50;;;;;15.43;76.07;101651.75;5001974;28;45562;-81
2022/09/11 06:30:40;;;;;;;;;12.75;11.75;;;;;15.46;76.17;101661.47;5000194;28;45979;-81
2022/09/11 06:33:05;;;;;;;;;14.25;12.00;;;;;15.50;76.29;101665.81;5001922;28;45225;-81
2022/09/11 06:35:31;;;;;;;;;14.00;13.75;;;;;15.52;76.04;101667.56;5000562;28;45221;-81
2022/09/11 06:37:56;;;;;;;;;16.50;12.75;;;;;15.56;76.20;101658.69;5000664;28;45485;-81
2022/09/11 06:40:23;;;;;;;;;16.50;11.25;;;;;15.59;75.91;101658.66;5001756;28;47368;-81
2022/09/11 06:42:49;;;;;;;;;12.50;11.25;;;;;15.64;75.76;101669.25;5001803;28;45434;-81
2022/09/11 06:45:16;;;;;;;;;12.75;12.75;;;;;15.65;75.89;101666.56;5001850;28;45252;-81
2022/09/11 06:47:41;;;;;;;;;11.75;11.75;;;;;15.69;75.42;101664.81;5013474;28;45328;-81
2022/09/11 06:50:07;;;;;;;;;12.50;10.50;;;;;15.66;75.38;101654.16;5021338;28;46228;-81
2022/09/11 06:52:33;;;;;;;;;10.00;9.00;;;;;15.72;75.19;101666.56;5020185;28;45394;-81
2022/09/11 06:55:00;;;;;;;;;13.25;11.25;;;;;15.76;74.95;101665.63;5019867;28;45511;-81
2022/09/11 06:57:27;;;;;;;;;11.75;11.75;;;;;15.76;74.94;101660.31;5021206;28;45493;-81
2022/09/11 06:59:52;;;;;;;;;14.00;13.75;;;;;15.80;75.25;101668.22;5018795;28;47484;-81
2022/09/11 07:02:18;;;;;;;;;17.50;13.00;;;;;15.79;74.99;101662.91;5019864;28;45269;-81
2022/09/11 07:04:43;;;;;;;;;9.50;8.50;;;;;15.79;74.96;101652.31;5021334;28;45220;-81
2022/09/11 07:07:11;;;;;;;;;14.50;13.50;;;;;15.84;74.81;101661.97;5021489;28;45392;-81
2022/09/11 07:09:37;;;;;;;;;15.75;14.75;;;;;15.94;75.08;101668.06;5036274;28;46745;-81
2022/09/11 07:12:02;;;;;;;;;15.25;12.75;;;;;15.94;74.94;101653.91;5019733;28;45421;-81
2022/09/11 07:14:28;;;;;;;;;17.50;15.50;;;;;16.03;74.60;101665.31;5019676;28;45320;-81
2022/09/11 07:16:54;;;;;;;;;17.00;15.50;;;;;16.14;74.64;101674.94;5021021;28;45415;-81
2022/09/11 07:19:20;;;;;;;;;19.50;14.00;;;;;16.15;74.31;101666.94;5020908;28;46297;-81
2022/09/11 07:21:46;;;;;;;;;13.75;11.50;;;;;16.21;74.27;101656.25;5019590;28;45205;-81
2022/09/11 07:24:11;;;;;;;;;13.25;12.25;;;;;16.36;74.31;101668.47;5020852;28;45261;-81
2022/09/11 07:26:37;;;;;;;;;14.00;12.75;;;;;16.39;74.38;101662.25;5019601;28;45241;-81
2022/09/11 07:29:03;;;;;;;;;14.50;14.00;;;;;16.47;74.32;101671.00;5019201;28;47845;-81
2022/09/11 07:31:31;;;;;;;;;14.00;13.25;;;;;16.52;74.19;101672.69;5020976;28;45236;-81
2022/09/11 07:33:57;;;;;;;;;19.00;13.25;;;;;16.59;74.26;101662.81;5020868;28;45481;-81
2022/09/11 07:36:29;;;;;;;;;17.25;15.00;;;;;16.60;74.20;101664.59;5020634;28;45627;-81
2022/09/11 07:38:55;;;;;;;;;15.25;14.25;;;;;16.60;73.76;101666.34;5019268;28;46405;-81
2022/09/11 07:41:24;;;;;;;;;19.50;15.00;;;;;16.67;73.53;101671.56;5020562;28;45423;-81
2022/09/11 07:43:55;;;;;;;;;15.75;14.00;;;;;16.76;73.75;101674.13;5020467;28;45418;-81
2022/09/11 07:46:21;;;;;;;;;22.25;17.50;;;;;16.81;73.63;101668.75;5020212;28;45533;-81
2022/09/11 07:48:47;;;;;;;;;21.00;21.00;;;;;16.90;73.77;101673.06;5019120;28;47208;-81
2022/09/11 07:51:15;;;;;;;;;19.00;17.00;;;;;16.98;73.57;101673.84;5020432;28;45443;-81
2022/09/11 07:53:42;;;;;;;;;17.50;17.00;;;;;17.07;73.42;101678.13;5019286;28;45297;-81
2022/09/11 07:56:10;;;;;;;;;18.50;16.50;;;;;17.15;73.22;101668.25;5018675;28;45900;-81
2022/09/11 07:58:40;;;;;;;;;19.00;18.25;;;;;17.18;73.17;101669.06;5018795;28;46110;-81
2022/09/11 08:01:09;;;;;;;;;24.00;22.50;;;;;17.15;72.92;101665.56;5020228;28;45462;-81
2022/09/11 08:03:35;;;;;;;;;20.25;19.25;;;;;17.18;72.67;101674.38;5020473;28;45323;-81
2022/09/11 08:06:05;;;;;;;;;22.25;20.00;;;;;17.23;72.75;101669.00;5018653;28;45492;-81
2022/09/11 08:08:31;;;;;;;;;21.50;18.50;;;;;17.32;72.69;101673.28;5018842;28;48068;-81
2022/09/11 08:11:01;;;;;;;;;20.75;19.75;;;;;17.35;72.72;101679.44;5018720;28;45280;-81
2022/09/11 08:13:26;;;;;;;;;22.50;20.00;;;;;17.40;72.51;101671.34;5018868;28;45347;-81
2022/09/11 08:15:52;;;;;;;;;25.75;23.50;;;;;17.50;72.56;101664.09;5018206;28;45596;-81
2022/09/11 08:18:18;;;;;;;;;29.25;26.50;;;;;17.55;72.54;101663.09;5019986;28;45493;-81
2022/09/11 08:20:44;;;;;;;;;26.75;24.00;;;;;17.59;72.12;101675.47;5019885;28;45355;-81
2022/09/11 08:23:10;;;;;;;;;26.75;24.25;;;;;17.68;72.21;101671.75;5018712;28;45438;-81
2022/09/11 08:25:36;;;;;;;;;22.75;22.75;;;;;17.77;72.26;101662.72;5019953;28;45232;-81
2022/09/11 08:28:03;;;;;;;;;27.50;21.25;;;;;17.82;72.09;101653.75;5018629;28;46097;-81
2022/09/11 08:30:28;;;;;;;;;30.75;29.50;;;;;17.90;72.07;101660.72;5019025;28;45734;-81
2022/09/11 08:32:54;;;;;;;;;29.75;27.25;;;;;18.01;72.23;101664.06;5020629;28;45237;-81
2022/09/11 08:35:19;;;;;;;;;26.75;26.25;;;;;18.15;71.59;101667.34;5019886;28;45462;-81
2022/09/11 08:37:45;;;;;;;;;24.50;23.75;;;;;18.27;71.53;101667.06;5019851;28;45489;-81
2022/09/11 08:40:11;;;;;;;;;27.00;27.00;;;;;18.42;71.46;101670.34;5019666;28;45362;-81
2022/09/11 08:42:44;;;;;;;;;29.75;28.75;;;;;18.55;71.21;101678.94;5019997;28;45340;-81
2022/09/11 08:45:20;;;;;;;;;29.25;27.00;;;;;18.67;70.41;101681.34;5019530;28;45194;-80
2022/09/11 08:47:53;;;;;;;;;29.25;28.25;;;;;18.77;70.26;101690.06;5018111;28;46191;-81
2022/09/11 08:50:24;;;;;;;;;31.00;30.00;;;;;18.86;70.32;101685.38;5020000;28;45466;-81
2022/09/11 08:52:49;;;;;;;;;34.50;32.75;;;;;18.92;69.88;101682.59;5019631;28;45491;-82
2022/09/11 08:55:23;;;;;;;;;33.50;30.75;;;;;19.01;70.25;101680.63;5017703;28;45339;-81
2022/09/11 08:58:07;;;;;;;;;33.50;32.25;;;;;19.15;69.47;101682.03;5019402;28;46169;-81
2022/09/11 09:00:43;;;;;;;;;32.00;30.25;;;;;19.29;69.04;101678.13;5019243;28;45423;-81
2022/09/11 09:03:29;;;;;;;;;31.00;29.75;;;;;19.44;69.47;101676.88;5019721;28;45449;-80
2022/09/11 09:06:10;;;;;;;;;35.00;30.00;;;;;19.51;68.52;101683.78;5017947;28;45608;-81
2022/09/11 09:08:46;;;;;;;;;36.00;31.00;;;;;19.54;68.17;101692.63;5018149;28;47675;-81
2022/09/11 09:11:20;;;;;;;;;33.25;32.00;;;;;19.54;68.39;101686.38;5018641;28;45667;-82
2022/09/11 09:14:20;;;;;;;;;35.00;31.00;;;;;19.49;68.58;101674.97;5020074;28;45461;-81
2022/09/11 09:16:54;;;;;;;;;32.00;31.00;;;;;19.43;68.26;101677.78;5019697;28;45467;-81
2022/09/11 09:19:30;;;;;;;;;35.00;32.00;;;;;19.39;68.88;101682.34;5013951;28;47247;-81
2022/09/11 09:22:09;;;;;;;;;34.75;32.50;;;;;19.29;68.66;101676.34;5000786;28;45244;-81
2022/09/11 09:24:47;;;;;;;;;43.00;35.75;;;;;19.26;69.03;101673.75;5003146;28;45245;-82
2022/09/11 09:27:32;;;;;;;;;35.50;31.75;;;;;19.22;68.75;101672.09;5002207;28;45525;-81
2022/09/11 09:30:03;;;;;;;;;37.75;33.25;;;;;19.25;69.46;101693.38;5001477;28;46082;-81
2022/09/11 09:32:35;;;;;;;;;36.00;33.25;;;;;19.28;69.49;101679.06;5002926;28;45566;-81
2022/09/11 09:35:09;;;;;;;;;37.00;32.50;;;;;19.31;69.33;101679.84;5002829;28;45240;-81
2022/09/11 09:37:37;;;;;;;;;43.25;37.00;;;;;19.39;69.26;101683.19;5002737;28;45383;-81
2022/09/11 09:40:08;;;;;;;;;40.25;33.25;;;;;19.45;69.42;101678.63;5001083;28;47080;-81
2022/09/11 09:43:06;;;;;;;;;40.00;35.25;;;;;19.53;69.40;101679.31;5002915;28;45436;-81
2022/09/11 09:45:41;;;;;;;;;41.75;37.75;;;;;19.57;68.77;101681.88;5001157;28;45239;-81
2022/09/11 09:48:10;;;;;;;;;33.50;31.00;;;;;19.60;68.79;101675.56;5017834;28;45488;-81
2022/09/11 09:50:39;;;;;;;;;48.00;36.00;;;;;19.66;68.84;101666.50;5021065;28;47262;-82
2022/09/11 09:53:26;;;;;;;;;33.75;31.25;;;;;19.75;68.72;101658.25;5020910;28;45794;-81
2022/09/11 09:55:53;;;;;;;;;39.75;33.50;;;;;19.83;68.45;101654.47;5022125;28;45193;-81
2022/09/11 09:58:25;;;;;;;;;36.75;34.25;;;;;19.96;68.88;101665.69;5014924;28;45443;-81
2022/09/11 10:00:51;;;;;;;;;35.75;31.25;;;;;20.12;68.35;101671.47;5000797;28;47824;-81
2022/09/11 10:03:22;;;;;;;;;34.25;30.00;;;;;20.26;68.36;101655.03;5002785;28;45278;-81
2022/09/11 10:05:52;;;;;;;;;36.50;32.75;;;;;20.48;68.01;101657.97;5001628;28;45356;-81
2022/09/11 10:08:29;;;;;;;;;35.50;30.25;;;;;20.76;67.41;101658.00;5002815;28;45253;-81
2022/09/11 10:11:00;;;;;;;;;26.75;25.25;;;;;20.98;66.22;101660.84;5013945;28;47685;-82
2022/09/11 10:13:32;;;;;;;;;17.75;15.75;;;;;21.23;65.02;101665.44;5002169;28;45409;-82
2022/09/11 10:16:01;;;;;;;;;17.25;13.75;;;;;21.44;64.05;101661.16;5000487;28;45336;-81
2022/09/11 10:18:29;;;;;;;;;12.00;11.67;;;;;21.56;63.13;101658.94;5002399;28;45367;-82
2022/09/11 10:21:20;;;;;;;;;14.67;12.00;;;;;21.72;62.58;101645.88;5002692;28;45244;-82
2022/09/11 10:23:54;;;;;;;;;13.00;13.00;;;;;21.89;62.32;101653.34;5003142;28;45241;-82
2022/09/11 10:26:25;;;;;;;;;12.33;11.00;;;;;22.01;61.60;101654.69;5000712;28;45375;-81
2022/09/11 10:28:54;;;;;;;;;8.33;7.00;;;;;22.13;60.57;101651.56;5001612;28;45427;-82
2022/09/11 10:31:21;;;;;;;;;10.33;10.33;;;;;22.29;60.32;101638.44;5000383;28;48049;-81
2022/09/11 10:33:55;;;;;;;;;7.33;7.33;;;;;22.44;60.09;101643.22;5001738;28;45396;-82
2022/09/11 10:36:23;;;;;;;;;7.33;7.33;;;;;22.53;59.36;101646.47;4999411;28;45416;-82
2022/09/11 10:38:50;;;;;;;;;7.67;7.67;;;;;22.58;59.15;101642.66;5001694;28;45581;-82
2022/09/11 10:41:20;;;;;;;;;9.00;9.00;;;;;22.63;58.32;101643.38;5001531;28;45530;-82
2022/09/11 10:44:01;;;;;;;;;10.00;9.67;;;;;22.67;58.26;101641.47;5007269;28;45805;-82
2022/09/11 10:46:30;;;;;;;;;11.33;10.33;;;;;22.73;57.99;101645.69;5021357;28;45490;-81
2022/09/11 10:49:07;;;;;;;;;11.67;11.00;;;;;22.80;57.64;101637.34;5020069;28;45593;-82
2022/09/11 10:51:41;;;;;;;;;8.33;8.33;;;;;22.86;57.21;101634.41;5019789;28;47131;-81
2022/09/11 10:54:39;;;;;;;;;8.67;8.67;;;;;22.89;56.90;101636.09;5021165;28;45207;-82
2022/09/11 10:57:17;;;;;;;;;11.33;10.00;;;;;22.82;56.77;101627.38;5008628;28;45522;-82
2022/09/11 10:59:50;;;;;;;;;13.00;12.00;;;;;22.83;57.06;101620.22;5021106;28;45441;-82
2022/09/11 11:02:24;;;;;;;;;8.67;7.67;;;;;22.93;56.99;101615.34;5019625;28;47692;-82
2022/09/11 11:04:50;;;;;;;;;9.67;9.67;;;;;23.03;56.59;101614.06;5019883;28;45213;-81
2022/09/11 11:07:41;;;;;;;;;10.00;10.00;;;;;23.18;56.64;101608.03;5020018;28;45483;-81
2022/09/11 11:10:30;;;;;;;;;10.67;10.67;;;;;23.43;55.98;101606.97;5021461;28;45211;-82
2022/09/11 11:13:29;;;;;;;;;9.67;8.67;;;;;23.65;54.83;101604.22;5019609;28;46230;-82
2022/09/11 11:16:03;;;;;;;;;8.00;7.67;;;;;23.88;54.62;101600.53;5019494;28;45393;-82
2022/09/11 11:18:55;;;;;;;;;8.67;8.00;;;;;24.16;54.79;101598.31;5021272;28;45395;-82
2022/09/11 11:21:38;;;;;;;;;7.33;7.33;;;;;24.34;53.89;101599.25;5019627;28;45513;-81
2022/09/11 11:24:11;;;;;;;;;9.33;8.33;;;;;24.45;52.86;101597.88;5020828;28;46577;-82